createdAt,value
2016-12-11T00:00:30.019Z,10.35
2016-12-11T00:01:30.130Z,10.47
2016-12-11T00:02:30.065Z,10.39
2016-12-11T00:03:30.071Z,10.44
2016-12-11T00:04:30.006Z,10.42
2016-12-11T00:05:30.065Z,10.44
2016-12-11T00:06:30.076Z,10.42
2016-12-11T00:07:30.117Z,10.47
2016-12-11T00:08:30.039Z,10.36
2016-12-11T00:09:30.120Z,10.46
2016-12-11T00:10:30.085Z,10.44
2016-12-11T00:11:30.212Z,10.51
2016-12-11T00:12:30.062Z,10.32
2016-12-11T00:13:30.079Z,10.44
2016-12-11T00:14:30.113Z,10.39
2016-12-11T00:15:30.233Z,10.49
2016-12-11T00:16:30.060Z,10.52
2016-12-11T00:17:30.100Z,10.44
2016-12-11T00:18:30.020Z,10.46
2016-12-11T00:19:30.374Z,10.55
2016-12-11T00:20:30.087Z,10.6
2016-12-11T00:21:30.192Z,10.52
2016-12-11T00:22:30.109Z,10.54
2016-12-11T00:23:30.093Z,10.52
2016-12-11T00:24:30.098Z,10.54
2016-12-11T00:25:30.039Z,10.62
2016-12-11T00:26:30.058Z,10.62
2016-12-11T00:27:30.108Z,10.57
2016-12-11T00:28:30.076Z,10.65
2016-12-11T00:29:30.060Z,10.63
2016-12-11T00:30:30.099Z,10.62
2016-12-11T00:31:30.296Z,10.68
2016-12-11T00:32:30.051Z,10.7
2016-12-11T00:33:30.059Z,10.72
2016-12-11T00:34:30.143Z,10.68
2016-12-11T00:35:30.137Z,10.58
2016-12-11T00:36:30.074Z,10.68
2016-12-11T00:37:30.164Z,10.72
2016-12-11T00:38:30.192Z,10.75
2016-12-11T00:39:30.042Z,10.65
2016-12-11T00:40:30.035Z,10.7
2016-12-11T00:41:30.036Z,10.75
2016-12-11T00:42:30.110Z,10.69
2016-12-11T00:43:30.206Z,10.69
2016-12-11T00:44:30.093Z,10.66
2016-12-11T00:45:30.127Z,10.72
2016-12-11T00:46:30.086Z,10.7
2016-12-11T00:47:30.085Z,10.62
2016-12-11T00:48:29.969Z,10.7
2016-12-11T00:49:30.299Z,10.69
2016-12-11T00:50:30.023Z,10.65
2016-12-11T00:51:30.126Z,10.72
2016-12-11T00:52:30.027Z,10.7
2016-12-11T00:53:30.106Z,10.7
2016-12-11T00:54:30.036Z,10.69
2016-12-11T00:55:30.185Z,10.7
2016-12-11T00:56:30.107Z,10.73
2016-12-11T00:57:30.047Z,10.68
2016-12-11T00:58:30.010Z,10.69
2016-12-11T00:59:30.171Z,10.75
2016-12-11T01:00:30.044Z,10.65
2016-12-11T01:01:30.114Z,10.73
2016-12-11T01:02:30.107Z,10.66
2016-12-11T01:03:30.112Z,10.73
2016-12-11T01:04:30.068Z,10.65
2016-12-11T01:05:30.250Z,10.66
2016-12-11T01:06:30.213Z,10.57
2016-12-11T01:07:30.172Z,10.6
2016-12-11T01:08:30.018Z,10.66
2016-12-11T01:09:30.077Z,10.6
2016-12-11T01:10:30.044Z,10.65
2016-12-11T01:11:30.155Z,10.65
2016-12-11T01:12:30.004Z,10.66
2016-12-11T01:13:30.074Z,10.66
2016-12-11T01:14:30.098Z,10.65
2016-12-11T01:15:31.106Z,10.73
2016-12-11T01:16:30.117Z,10.73
2016-12-11T01:17:30.246Z,10.72
2016-12-11T01:18:30.041Z,10.72
2016-12-11T01:19:30.108Z,10.75
2016-12-11T01:20:30.092Z,10.75
2016-12-11T01:21:30.107Z,10.87
2016-12-11T01:22:30.064Z,10.72
2016-12-11T01:23:30.031Z,10.7
2016-12-11T01:24:30.089Z,10.62
2016-12-11T01:25:30.153Z,10.66
2016-12-11T01:26:30.138Z,10.81
2016-12-11T01:27:30.199Z,10.72
2016-12-11T01:28:30.134Z,10.7
2016-12-11T01:29:30.197Z,10.66
2016-12-11T01:30:30.117Z,10.62
2016-12-11T01:31:30.099Z,10.68
2016-12-11T01:32:30.074Z,10.6
2016-12-11T01:33:30.118Z,10.55
2016-12-11T01:34:30.047Z,10.47
2016-12-11T01:35:30.165Z,10.52
2016-12-11T01:36:30.127Z,10.51
2016-12-11T01:37:30.182Z,10.36
2016-12-11T01:38:30.125Z,10.32
2016-12-11T01:39:30.171Z,10.36
2016-12-11T01:40:30.100Z,10.38
2016-12-11T01:41:30.201Z,10.26
2016-12-11T01:42:30.080Z,10.26
2016-12-11T01:43:30.123Z,10.13
2016-12-11T01:44:30.078Z,10.2
2016-12-11T01:45:30.181Z,10.2
2016-12-11T01:46:30.142Z,10.2
2016-12-11T01:47:30.160Z,10.06
2016-12-11T01:48:30.049Z,10.11
2016-12-11T01:49:30.152Z,9.99
2016-12-11T01:50:30.143Z,10.16
2016-12-11T01:51:30.178Z,10.04
2016-12-11T01:52:31.343Z,10.09
2016-12-11T01:53:30.160Z,9.95
2016-12-11T01:54:30.081Z,10.01
2016-12-11T01:55:30.124Z,9.99
2016-12-11T01:56:30.204Z,9.99
2016-12-11T01:57:30.163Z,9.93
2016-12-11T01:58:30.139Z,9.95
2016-12-11T01:59:30.108Z,9.93
2016-12-11T02:00:30.098Z,9.95
2016-12-11T02:01:30.192Z,9.96
2016-12-11T02:02:30.133Z,9.96
2016-12-11T02:03:30.171Z,9.89
2016-12-11T02:04:30.123Z,9.92
2016-12-11T02:05:30.162Z,9.93
2016-12-11T02:06:30.140Z,9.93
2016-12-11T02:07:30.235Z,9.81
2016-12-11T02:08:30.145Z,9.86
2016-12-11T02:09:30.135Z,9.95
2016-12-11T02:10:30.116Z,9.83
2016-12-11T02:11:30.385Z,9.91
2016-12-11T02:12:30.110Z,9.81
2016-12-11T02:13:30.094Z,9.81
2016-12-11T02:14:30.139Z,9.83
2016-12-11T02:15:30.101Z,9.75
2016-12-11T02:16:30.157Z,9.8
2016-12-11T02:17:30.119Z,9.81
2016-12-11T02:18:30.149Z,9.8
2016-12-11T02:19:30.171Z,9.78
2016-12-11T02:20:30.137Z,9.8
2016-12-11T02:21:30.170Z,9.81
2016-12-11T02:22:30.119Z,9.74
2016-12-11T02:23:31.579Z,9.75
2016-12-11T02:24:30.140Z,9.74
2016-12-11T02:25:30.824Z,9.77
2016-12-11T02:26:30.903Z,9.78
2016-12-11T02:27:30.171Z,9.89
2016-12-11T02:28:30.172Z,9.8
2016-12-11T02:29:30.227Z,9.77
2016-12-11T02:30:30.169Z,9.74
2016-12-11T02:31:30.216Z,9.71
2016-12-11T02:32:30.157Z,9.73
2016-12-11T02:33:30.260Z,9.77
2016-12-11T02:34:30.153Z,9.8
2016-12-11T02:35:30.228Z,9.67
2016-12-11T02:36:30.196Z,9.7
2016-12-11T02:37:30.231Z,9.8
2016-12-11T02:38:30.138Z,9.75
2016-12-11T02:39:30.125Z,9.74
2016-12-11T02:40:30.086Z,9.75
2016-12-11T02:41:30.215Z,9.78
2016-12-11T02:42:30.665Z,9.67
2016-12-11T02:43:30.160Z,9.73
2016-12-11T02:44:30.188Z,9.77
2016-12-11T02:45:30.161Z,9.74
2016-12-11T02:46:30.199Z,9.68
2016-12-11T02:47:30.263Z,9.75
2016-12-11T02:48:30.138Z,9.7
2016-12-11T02:49:30.351Z,9.67
2016-12-11T02:50:30.165Z,9.68
2016-12-11T02:51:30.208Z,9.75
2016-12-11T02:52:30.147Z,9.71
2016-12-11T02:53:30.176Z,9.67
2016-12-11T02:54:30.179Z,9.63
2016-12-11T02:55:30.187Z,9.65
2016-12-11T02:56:30.248Z,9.68
2016-12-11T02:57:30.288Z,9.65
2016-12-11T02:58:30.159Z,9.65
2016-12-11T02:59:30.808Z,9.68
2016-12-11T03:00:30.176Z,9.67
2016-12-11T03:01:30.235Z,9.68
2016-12-11T03:02:30.182Z,9.71
2016-12-11T03:03:30.212Z,9.68
2016-12-11T03:04:30.189Z,9.62
2016-12-11T03:05:30.224Z,9.6
2016-12-11T03:06:30.207Z,9.71
2016-12-11T03:07:30.285Z,9.67
2016-12-11T03:08:30.156Z,9.67
2016-12-11T03:09:30.227Z,9.7
2016-12-11T03:10:30.165Z,9.71
2016-12-11T03:11:30.260Z,9.77
2016-12-11T03:12:30.147Z,9.67
2016-12-11T03:13:30.146Z,9.74
2016-12-11T03:14:30.166Z,9.74
2016-12-11T03:15:30.291Z,9.78
2016-12-11T03:16:30.212Z,9.78
2016-12-11T03:17:30.195Z,9.77
2016-12-11T03:18:30.197Z,9.71
2016-12-11T03:19:30.162Z,9.77
2016-12-11T03:20:30.279Z,9.78
2016-12-11T03:21:30.234Z,9.78
2016-12-11T03:22:30.226Z,9.83
2016-12-11T03:23:30.903Z,9.85
2016-12-11T03:24:30.196Z,9.85
2016-12-11T03:25:30.318Z,9.77
2016-12-11T03:26:30.226Z,9.71
2016-12-11T03:27:30.206Z,9.77
2016-12-11T03:28:30.151Z,9.8
2016-12-11T03:29:30.216Z,9.78
2016-12-11T03:30:31.417Z,9.7
2016-12-11T03:31:30.324Z,9.68
2016-12-11T03:32:30.316Z,9.8
2016-12-11T03:33:30.327Z,9.75
2016-12-11T03:34:30.232Z,9.77
2016-12-11T03:35:30.261Z,9.68
2016-12-11T03:36:30.265Z,9.65
2016-12-11T03:37:31.219Z,9.68
2016-12-11T03:38:30.791Z,9.75
2016-12-11T03:39:30.276Z,9.68
2016-12-11T03:40:30.257Z,9.7
2016-12-11T03:41:30.217Z,9.8
2016-12-11T03:42:30.226Z,9.78
2016-12-11T03:43:30.855Z,9.78
2016-12-11T03:44:30.965Z,9.75
2016-12-11T03:45:30.286Z,9.75
2016-12-11T03:46:30.773Z,9.78
2016-12-11T03:47:30.534Z,9.74
2016-12-11T03:48:31.465Z,9.78
2016-12-11T03:49:30.417Z,9.78
2016-12-11T03:50:30.945Z,9.74
2016-12-11T03:51:30.924Z,9.75
2016-12-11T03:52:30.406Z,9.78
2016-12-11T03:53:30.491Z,9.78
2016-12-11T03:54:30.387Z,9.7
2016-12-11T03:55:30.446Z,9.71
2016-12-11T03:56:30.438Z,9.63
2016-12-11T03:57:30.541Z,9.67
2016-12-11T03:58:30.338Z,9.67
2016-12-11T03:59:30.421Z,9.65
2016-12-11T04:00:30.322Z,9.62
2016-12-11T04:01:30.326Z,9.65
2016-12-11T04:02:31.937Z,9.63
2016-12-11T04:03:30.476Z,9.59
2016-12-11T04:04:30.489Z,9.56
2016-12-11T04:05:30.474Z,9.63
2016-12-11T04:06:30.340Z,9.56
2016-12-11T04:07:30.381Z,9.56
2016-12-11T04:08:30.446Z,9.59
2016-12-11T04:09:30.376Z,9.63
2016-12-11T04:10:30.385Z,9.62
2016-12-11T04:11:30.538Z,9.59
2016-12-11T04:12:31.478Z,9.59
2016-12-11T04:13:30.456Z,9.62
2016-12-11T04:14:30.380Z,9.58
2016-12-11T04:15:30.471Z,9.62
2016-12-11T04:16:30.353Z,9.58
2016-12-11T04:17:30.464Z,9.6
2016-12-11T04:18:30.357Z,9.56
2016-12-11T04:19:30.424Z,9.59
2016-12-11T04:20:30.385Z,9.45
2016-12-11T04:21:30.516Z,9.49
2016-12-11T04:22:30.482Z,9.41
2016-12-11T04:23:30.727Z,9.3
2016-12-11T04:24:30.404Z,9.27
2016-12-11T04:25:30.331Z,9.26
2016-12-11T04:26:30.475Z,9.2
2016-12-11T04:27:30.438Z,9.19
2016-12-11T04:28:30.346Z,9.1
2016-12-11T04:29:30.490Z,9.15
2016-12-11T04:30:30.396Z,9.12
2016-12-11T04:31:30.602Z,9.16
2016-12-11T04:32:30.346Z,9.1
2016-12-11T04:33:30.469Z,9.13
2016-12-11T04:34:30.416Z,9.06
2016-12-11T04:35:30.448Z,9.03
2016-12-11T04:36:30.401Z,8.97
2016-12-11T04:37:30.593Z,9
2016-12-11T04:38:30.359Z,8.93
2016-12-11T04:39:30.713Z,8.98
2016-12-11T04:40:30.400Z,8.98
2016-12-11T04:41:30.487Z,8.94
2016-12-11T04:42:30.346Z,8.88
2016-12-11T04:43:30.434Z,8.91
2016-12-11T04:44:30.315Z,8.8
2016-12-11T04:45:30.466Z,8.8
2016-12-11T04:46:30.364Z,8.86
2016-12-11T04:47:30.496Z,8.93
2016-12-11T04:48:30.345Z,8.8
2016-12-11T04:49:30.733Z,8.8
2016-12-11T04:50:30.470Z,8.88
2016-12-11T04:51:30.736Z,8.83
2016-12-11T04:52:30.662Z,8.85
2016-12-11T04:53:30.775Z,8.83
2016-12-11T04:54:30.365Z,8.8
2016-12-11T04:55:30.441Z,8.83
2016-12-11T04:56:30.402Z,8.79
2016-12-11T04:57:30.500Z,8.88
2016-12-11T04:58:30.306Z,8.82
2016-12-11T04:59:30.577Z,8.91
2016-12-11T05:00:30.355Z,8.85
2016-12-11T05:01:30.536Z,8.88
2016-12-11T05:02:30.393Z,8.71
2016-12-11T05:03:30.495Z,8.78
2016-12-11T05:04:30.292Z,8.83
2016-12-11T05:05:30.325Z,8.76
2016-12-11T05:06:30.349Z,8.8
2016-12-11T05:07:30.375Z,8.79
2016-12-11T05:08:30.304Z,8.76
2016-12-11T05:09:30.321Z,8.76
2016-12-11T05:10:30.295Z,8.8
2016-12-11T05:11:31.084Z,8.71
2016-12-11T05:12:30.363Z,8.73
2016-12-11T05:13:30.332Z,8.73
2016-12-11T05:14:30.324Z,8.64
2016-12-11T05:15:30.425Z,8.57
2016-12-11T05:16:30.436Z,8.7
2016-12-11T05:17:30.339Z,8.58
2016-12-11T05:18:31.630Z,8.61
2016-12-11T05:19:30.312Z,8.58
2016-12-11T05:20:30.299Z,8.61
2016-12-11T05:21:30.314Z,8.61
2016-12-11T05:22:30.395Z,8.61
2016-12-11T05:23:30.287Z,8.5
2016-12-11T05:24:30.324Z,8.55
2016-12-11T05:25:30.325Z,8.55
2016-12-11T05:26:30.435Z,8.52
2016-12-11T05:27:30.289Z,8.57
2016-12-11T05:28:30.309Z,8.45
2016-12-11T05:29:30.389Z,8.55
2016-12-11T05:30:30.394Z,8.49
2016-12-11T05:31:30.419Z,8.57
2016-12-11T05:32:30.339Z,8.58
2016-12-11T05:33:30.504Z,8.49
2016-12-11T05:34:30.347Z,8.5
2016-12-11T05:35:30.314Z,8.5
2016-12-11T05:36:30.393Z,8.49
2016-12-11T05:37:30.453Z,8.43
2016-12-11T05:38:30.333Z,8.54
2016-12-11T05:39:30.365Z,8.47
2016-12-11T05:40:30.353Z,8.47
2016-12-11T05:41:30.408Z,8.49
2016-12-11T05:42:30.376Z,8.57
2016-12-11T05:43:30.363Z,8.55
2016-12-11T05:44:30.328Z,8.47
2016-12-11T05:45:30.452Z,8.4
2016-12-11T05:46:30.379Z,8.54
2016-12-11T05:47:30.422Z,8.43
2016-12-11T05:48:30.371Z,8.5
2016-12-11T05:49:30.415Z,8.57
2016-12-11T05:50:30.422Z,8.52
2016-12-11T05:51:30.441Z,8.54
2016-12-11T05:52:30.521Z,8.57
2016-12-11T05:53:30.412Z,8.54
2016-12-11T05:54:30.353Z,8.52
2016-12-11T05:55:31.739Z,8.57
2016-12-11T05:56:30.400Z,8.57
2016-12-11T05:57:30.384Z,8.47
2016-12-11T05:58:30.542Z,8.54
2016-12-11T05:59:30.430Z,8.54
2016-12-11T06:00:30.363Z,8.57
2016-12-11T06:01:30.497Z,8.54
2016-12-11T06:02:30.424Z,8.55
2016-12-11T06:03:30.371Z,8.49
2016-12-11T06:04:30.382Z,8.49
2016-12-11T06:05:30.482Z,8.5
2016-12-11T06:06:30.401Z,8.57
2016-12-11T06:07:30.392Z,8.55
2016-12-11T06:08:30.427Z,8.57
2016-12-11T06:09:30.449Z,8.46
2016-12-11T06:10:30.532Z,8.46
2016-12-11T06:11:30.521Z,8.57
2016-12-11T06:12:30.470Z,8.43
2016-12-11T06:13:30.444Z,8.49
2016-12-11T06:14:30.405Z,8.54
2016-12-11T06:15:30.399Z,8.49
2016-12-11T06:16:30.769Z,8.45
2016-12-11T06:17:30.490Z,8.46
2016-12-11T06:18:30.402Z,8.45
2016-12-11T06:19:30.387Z,8.46
2016-12-11T06:20:30.459Z,8.52
2016-12-11T06:21:30.531Z,8.46
2016-12-11T06:22:30.451Z,8.45
2016-12-11T06:23:30.472Z,8.45
2016-12-11T06:24:30.401Z,8.43
2016-12-11T06:25:30.482Z,8.45
2016-12-11T06:26:30.461Z,8.39
2016-12-11T06:27:30.378Z,8.45
2016-12-11T06:28:30.363Z,8.49
2016-12-11T06:29:30.501Z,8.37
2016-12-11T06:30:30.410Z,8.42
2016-12-11T06:31:30.461Z,8.4
2016-12-11T06:32:30.423Z,8.43
2016-12-11T06:33:30.552Z,8.52
2016-12-11T06:34:30.431Z,8.45
2016-12-11T06:35:30.488Z,8.5
2016-12-11T06:36:30.500Z,8.5
2016-12-11T06:37:30.445Z,8.54
2016-12-11T06:38:30.432Z,8.45
2016-12-11T06:39:30.381Z,8.54
2016-12-11T06:40:30.430Z,8.5
2016-12-11T06:41:30.532Z,8.43
2016-12-11T06:42:30.501Z,8.4
2016-12-11T06:43:30.456Z,8.45
2016-12-11T06:44:30.465Z,8.4
2016-12-11T06:45:30.522Z,8.49
2016-12-11T06:46:30.420Z,8.47
2016-12-11T06:47:30.531Z,8.43
2016-12-11T06:48:30.421Z,8.39
2016-12-11T06:49:30.490Z,8.42
2016-12-11T06:50:30.452Z,8.45
2016-12-11T06:51:30.531Z,8.39
2016-12-11T06:52:30.448Z,8.46
2016-12-11T06:53:30.511Z,8.49
2016-12-11T06:54:30.460Z,8.45
2016-12-11T06:55:30.570Z,8.34
2016-12-11T06:56:30.475Z,8.43
2016-12-11T06:57:31.608Z,8.47
2016-12-11T06:58:31.627Z,8.4
2016-12-11T06:59:30.462Z,8.42
2016-12-11T07:00:30.463Z,8.47
2016-12-11T07:01:30.521Z,8.47
2016-12-11T07:02:31.018Z,8.43
2016-12-11T07:03:30.466Z,8.43
2016-12-11T07:04:30.509Z,8.43
2016-12-11T07:05:30.545Z,8.4
2016-12-11T07:06:30.511Z,8.42
2016-12-11T07:07:30.618Z,8.37
2016-12-11T07:08:30.493Z,8.31
2016-12-11T07:09:30.469Z,8.42
2016-12-11T07:10:30.598Z,8.47
2016-12-11T07:11:30.478Z,8.39
2016-12-11T07:12:30.456Z,8.4
2016-12-11T07:13:30.438Z,8.34
2016-12-11T07:14:30.521Z,8.4
2016-12-11T07:15:30.458Z,8.36
2016-12-11T07:16:30.551Z,8.39
2016-12-11T07:17:30.479Z,8.46
2016-12-11T07:18:30.453Z,8.42
2016-12-11T07:19:30.468Z,8.42
2016-12-11T07:20:30.462Z,8.42
2016-12-11T07:21:30.551Z,8.42
2016-12-11T07:22:30.502Z,8.39
2016-12-11T07:23:30.499Z,8.45
2016-12-11T07:24:30.457Z,8.45
2016-12-11T07:25:30.549Z,8.49
2016-12-11T07:26:30.561Z,8.37
2016-12-11T07:27:30.560Z,8.46
2016-12-11T07:28:30.504Z,8.43
2016-12-11T07:29:30.463Z,8.47
2016-12-11T07:30:30.740Z,8.32
2016-12-11T07:31:30.668Z,8.34
2016-12-11T07:32:30.521Z,8.42
2016-12-11T07:33:30.542Z,8.45
2016-12-11T07:34:30.522Z,8.43
2016-12-11T07:35:30.522Z,8.37
2016-12-11T07:36:30.615Z,8.46
2016-12-11T07:37:30.585Z,8.37
2016-12-11T07:38:30.541Z,8.43
2016-12-11T07:39:30.531Z,8.39
2016-12-11T07:40:30.502Z,8.34
2016-12-11T07:41:30.538Z,8.24
2016-12-11T07:42:30.575Z,8.37
2016-12-11T07:43:30.531Z,8.39
2016-12-11T07:44:30.648Z,8.39
2016-12-11T07:45:30.511Z,8.43
2016-12-11T07:46:30.583Z,8.34
2016-12-11T07:47:30.601Z,8.43
2016-12-11T07:48:30.512Z,8.37
2016-12-11T07:49:30.534Z,8.45
2016-12-11T07:50:30.525Z,8.42
2016-12-11T07:51:30.714Z,8.49
2016-12-11T07:52:30.678Z,8.43
2016-12-11T07:53:30.541Z,8.39
2016-12-11T07:54:30.610Z,8.49
2016-12-11T07:55:30.599Z,8.49
2016-12-11T07:56:30.616Z,8.47
2016-12-11T07:57:30.522Z,8.45
2016-12-11T07:58:30.527Z,8.45
2016-12-11T07:59:30.568Z,8.45
2016-12-11T08:00:30.783Z,8.42
2016-12-11T08:01:30.613Z,8.45
2016-12-11T08:02:30.599Z,8.47
2016-12-11T08:03:30.579Z,8.5
2016-12-11T08:04:30.570Z,8.49
2016-12-11T08:05:30.601Z,8.49
2016-12-11T08:06:30.623Z,8.55
2016-12-11T08:07:30.648Z,8.52
2016-12-11T08:08:30.611Z,8.49
2016-12-11T08:09:30.638Z,8.49
2016-12-11T08:10:30.690Z,8.49
2016-12-11T08:11:30.669Z,8.4
2016-12-11T08:12:30.635Z,8.45
2016-12-11T08:13:30.602Z,8.49
2016-12-11T08:14:30.569Z,8.4
2016-12-11T08:15:30.582Z,8.47
2016-12-11T08:16:30.701Z,8.43
2016-12-11T08:17:30.613Z,8.54
2016-12-11T08:18:30.736Z,8.46
2016-12-11T08:19:30.565Z,8.43
2016-12-11T08:20:30.568Z,8.54
2016-12-11T08:21:30.612Z,8.54
2016-12-11T08:22:30.680Z,8.49
2016-12-11T08:23:30.619Z,8.54
2016-12-11T08:24:30.733Z,8.55
2016-12-11T08:25:30.689Z,8.52
2016-12-11T08:26:30.724Z,8.55
2016-12-11T08:27:30.631Z,8.52
2016-12-11T08:28:30.696Z,8.57
2016-12-11T08:29:30.725Z,8.57
2016-12-11T08:30:30.661Z,8.54
2016-12-11T08:31:30.715Z,8.57
2016-12-11T08:32:30.769Z,8.75
2016-12-11T08:33:30.651Z,8.75
2016-12-11T08:34:30.591Z,8.78
2016-12-11T08:35:30.665Z,8.75
2016-12-11T08:36:30.610Z,8.76
2016-12-11T08:37:30.665Z,8.76
2016-12-11T08:38:30.702Z,8.7
2016-12-11T08:39:30.602Z,8.73
2016-12-11T08:40:30.617Z,8.68
2016-12-11T08:41:30.663Z,8.7
2016-12-11T08:42:30.654Z,8.76
2016-12-11T08:43:30.642Z,8.78
2016-12-11T08:44:30.615Z,8.78
2016-12-11T08:45:30.632Z,8.78
2016-12-11T08:46:30.662Z,8.86
2016-12-11T08:47:30.640Z,8.82
2016-12-11T08:48:30.598Z,8.8
2016-12-11T08:49:30.612Z,8.78
2016-12-11T08:50:30.729Z,8.79
2016-12-11T08:51:30.642Z,8.85
2016-12-11T08:52:30.648Z,8.82
2016-12-11T08:53:30.630Z,8.78
2016-12-11T08:54:30.607Z,8.76
2016-12-11T08:55:30.665Z,8.76
2016-12-11T08:56:30.669Z,8.85
2016-12-11T08:57:30.585Z,8.8
2016-12-11T08:58:30.761Z,8.76
2016-12-11T08:59:30.657Z,8.76
2016-12-11T09:00:30.837Z,8.76
2016-12-11T09:01:30.865Z,8.71
2016-12-11T09:02:30.800Z,8.79
2016-12-11T09:03:30.672Z,8.88
2016-12-11T09:04:30.859Z,8.88
2016-12-11T09:05:30.693Z,8.76
2016-12-11T09:06:30.764Z,8.75
2016-12-11T09:07:30.699Z,8.85
2016-12-11T09:08:30.710Z,8.96
2016-12-11T09:09:30.691Z,8.96
2016-12-11T09:10:30.712Z,8.88
2016-12-11T09:11:30.907Z,8.86
2016-12-11T09:12:31.228Z,8.94
2016-12-11T09:13:30.753Z,8.93
2016-12-11T09:14:30.671Z,8.94
2016-12-11T09:15:30.676Z,8.93
2016-12-11T09:16:30.795Z,8.98
2016-12-11T09:17:30.747Z,8.91
2016-12-11T09:18:30.831Z,8.98
2016-12-11T09:19:30.715Z,9.08
2016-12-11T09:20:30.860Z,9.08
2016-12-11T09:21:30.731Z,9.08
2016-12-11T09:22:30.880Z,9.03
2016-12-11T09:23:30.842Z,9.12
2016-12-11T09:24:30.865Z,9.1
2016-12-11T09:25:30.718Z,9.12
2016-12-11T09:26:30.750Z,9.2
2016-12-11T09:27:30.715Z,9.27
2016-12-11T09:28:30.790Z,9.27
2016-12-11T09:29:30.789Z,9.34
2016-12-11T09:30:30.770Z,9.44
2016-12-11T09:31:30.865Z,9.59
2016-12-11T09:32:30.795Z,9.65
2016-12-11T09:33:30.723Z,9.74
2016-12-11T09:34:30.709Z,9.75
2016-12-11T09:35:30.716Z,9.67
2016-12-11T09:36:30.864Z,9.62
2016-12-11T09:37:30.766Z,9.45
2016-12-11T09:38:30.736Z,9.48
2016-12-11T09:39:30.700Z,9.37
2016-12-11T09:40:30.731Z,9.41
2016-12-11T09:41:30.727Z,9.44
2016-12-11T09:42:30.845Z,9.31
2016-12-11T09:43:30.674Z,9.3
2016-12-11T09:44:30.944Z,9.38
2016-12-11T09:45:30.847Z,9.38
2016-12-11T09:46:30.718Z,9.4
2016-12-11T09:47:30.705Z,9.5
2016-12-11T09:48:30.720Z,9.49
2016-12-11T09:49:30.839Z,9.45
2016-12-11T09:50:30.785Z,9.48
2016-12-11T09:51:31.044Z,9.6
2016-12-11T09:52:31.042Z,9.4
2016-12-11T09:53:31.250Z,9.6
2016-12-11T09:54:30.851Z,9.53
2016-12-11T09:55:30.887Z,9.6
2016-12-11T09:56:30.860Z,9.6
2016-12-11T09:57:30.902Z,9.56
2016-12-11T09:58:30.965Z,9.67
2016-12-11T09:59:30.852Z,9.77
2016-12-11T10:00:31.171Z,9.75
2016-12-11T10:01:30.825Z,9.7
2016-12-11T10:02:30.799Z,9.59
2016-12-11T10:03:30.942Z,9.58
2016-12-11T10:04:30.753Z,9.74
2016-12-11T10:05:30.825Z,9.74
2016-12-11T10:06:30.813Z,9.81
2016-12-11T10:07:30.746Z,9.81
2016-12-11T10:08:30.872Z,9.85
2016-12-11T10:09:30.707Z,9.8
2016-12-11T10:10:30.962Z,9.77
2016-12-11T10:11:30.841Z,9.67
2016-12-11T10:12:30.848Z,9.77
2016-12-11T10:13:30.835Z,9.77
2016-12-11T10:14:30.789Z,9.77
2016-12-11T10:15:30.823Z,9.92
2016-12-11T10:16:31.002Z,9.78
2016-12-11T10:17:30.843Z,9.67
2016-12-11T10:18:30.802Z,9.67
2016-12-11T10:19:30.763Z,9.65
2016-12-11T10:20:30.920Z,9.78
2016-12-11T10:21:30.922Z,9.75
2016-12-11T10:22:30.885Z,9.75
2016-12-11T10:23:30.858Z,9.7
2016-12-11T10:24:31.043Z,9.7
2016-12-11T10:25:30.809Z,9.6
2016-12-11T10:26:30.838Z,9.62
2016-12-11T10:27:30.924Z,9.56
2016-12-11T10:28:30.993Z,9.58
2016-12-11T10:29:30.833Z,9.49
2016-12-11T10:30:30.841Z,9.6
2016-12-11T10:31:30.811Z,9.49
2016-12-11T10:32:30.860Z,9.56
2016-12-11T10:33:30.917Z,9.44
2016-12-11T10:34:30.912Z,9.42
2016-12-11T10:35:30.791Z,9.49
2016-12-11T10:36:30.932Z,9.44
2016-12-11T10:37:30.781Z,9.4
2016-12-11T10:38:30.974Z,9.35
2016-12-11T10:39:31.025Z,9.34
2016-12-11T10:40:30.953Z,9.27
2016-12-11T10:41:31.812Z,9.32
2016-12-11T10:42:30.996Z,9.31
2016-12-11T10:43:31.987Z,9.4
2016-12-11T10:44:31.026Z,9.27
2016-12-11T10:45:30.922Z,9.16
2016-12-11T10:46:30.976Z,9.2
2016-12-11T10:47:30.978Z,9.22
2016-12-11T10:48:31.036Z,9.19
2016-12-11T10:49:30.937Z,9.16
2016-12-11T10:50:30.994Z,9.2
2016-12-11T10:51:31.166Z,9.13
2016-12-11T10:52:30.961Z,9.2
2016-12-11T10:53:31.025Z,9.27
2016-12-11T10:54:30.874Z,9.3
2016-12-11T10:55:31.609Z,9.27
2016-12-11T10:56:30.969Z,9.23
2016-12-11T10:57:30.984Z,9.26
2016-12-11T10:58:30.922Z,9.27
2016-12-11T10:59:30.891Z,9.38
2016-12-11T11:00:30.894Z,9.31
2016-12-11T11:01:30.826Z,9.3
2016-12-11T11:02:30.914Z,9.31
2016-12-11T11:03:30.953Z,9.3
2016-12-11T11:04:31.280Z,9.35
2016-12-11T11:05:30.881Z,9.32
2016-12-11T11:06:31.377Z,9.38
2016-12-11T11:07:30.832Z,9.5
2016-12-11T11:08:30.838Z,9.49
2016-12-11T11:09:30.942Z,9.42
2016-12-11T11:10:30.888Z,9.42
2016-12-11T11:11:31.041Z,9.5
2016-12-11T11:12:31.730Z,9.52
2016-12-11T11:13:30.913Z,9.52
2016-12-11T11:14:31.093Z,9.49
2016-12-11T11:15:30.876Z,9.42
2016-12-11T11:16:31.028Z,9.56
2016-12-11T11:17:30.985Z,9.62
2016-12-11T11:18:30.885Z,9.71
2016-12-11T11:19:30.807Z,9.68
2016-12-11T11:20:30.902Z,9.59
2016-12-11T11:21:31.069Z,9.65
2016-12-11T11:22:31.689Z,9.67
2016-12-11T11:23:30.852Z,9.75
2016-12-11T11:24:30.859Z,9.8
2016-12-11T11:25:30.924Z,9.98
2016-12-11T11:26:30.971Z,10.09
2016-12-11T11:27:30.888Z,10.29
2016-12-11T11:28:30.975Z,10.36
2016-12-11T11:29:30.959Z,10.28
2016-12-11T11:30:31.054Z,10.26
2016-12-11T11:31:31.079Z,10.54
2016-12-11T11:32:30.972Z,10.66
2016-12-11T11:33:31.032Z,10.84
2016-12-11T11:34:30.992Z,10.66
2016-12-11T11:35:30.920Z,10.46
2016-12-11T11:36:31.105Z,10.46
2016-12-11T11:37:31.000Z,10.63
2016-12-11T11:38:31.075Z,10.6
2016-12-11T11:39:31.000Z,10.55
2016-12-11T11:40:30.967Z,10.63
2016-12-11T11:41:30.955Z,10.52
2016-12-11T11:42:30.980Z,10.44
2016-12-11T11:43:30.897Z,10.55
2016-12-11T11:44:31.056Z,10.46
2016-12-11T11:45:31.054Z,10.34
2016-12-11T11:46:31.135Z,10.24
2016-12-11T11:47:30.999Z,10.26
2016-12-11T11:48:30.995Z,10.25
2016-12-11T11:49:30.849Z,10.38
2016-12-11T11:50:30.855Z,10.34
2016-12-11T11:51:31.034Z,10.57
2016-12-11T11:52:30.988Z,10.57
2016-12-11T11:53:30.939Z,10.49
2016-12-11T11:54:30.916Z,10.26
2016-12-11T11:55:30.944Z,10.22
2016-12-11T11:56:30.946Z,10.29
2016-12-11T11:57:30.912Z,10.39
2016-12-11T11:58:31.025Z,10.32
2016-12-11T11:59:30.920Z,10.42
2016-12-11T12:00:31.192Z,10.24
2016-12-11T12:01:31.057Z,10.34
2016-12-11T12:02:32.009Z,10.63
2016-12-11T12:03:30.901Z,10.47
2016-12-11T12:04:30.984Z,10.57
2016-12-11T12:05:31.130Z,10.68
2016-12-11T12:06:31.109Z,10.84
2016-12-11T12:07:30.986Z,10.75
2016-12-11T12:08:31.035Z,10.62
2016-12-11T12:09:31.232Z,10.73
2016-12-11T12:10:31.030Z,10.63
2016-12-11T12:11:33.592Z,10.58
2016-12-11T12:12:31.072Z,10.49
2016-12-11T12:13:31.110Z,10.46
2016-12-11T12:14:30.943Z,10.35
2016-12-11T12:15:31.070Z,10.36
2016-12-11T12:16:31.041Z,10.42
2016-12-11T12:17:31.034Z,10.26
2016-12-11T12:18:30.994Z,10.28
2016-12-11T12:19:30.925Z,10.36
2016-12-11T12:20:31.087Z,10.49
2016-12-11T12:21:31.006Z,10.54
2016-12-11T12:22:30.991Z,10.36
2016-12-11T12:23:30.947Z,10.2
2016-12-11T12:24:31.033Z,10.11
2016-12-11T12:25:31.067Z,10.24
2016-12-11T12:26:31.117Z,10.25
2016-12-11T12:27:30.986Z,10.34
2016-12-11T12:28:31.831Z,10.29
2016-12-11T12:29:30.954Z,10.57
2016-12-11T12:30:31.082Z,10.65
2016-12-11T12:31:31.025Z,10.43
2016-12-11T12:32:31.057Z,10.38
2016-12-11T12:33:30.930Z,10.28
2016-12-11T12:34:31.091Z,10.2
2016-12-11T12:35:31.195Z,10.14
2016-12-11T12:36:31.090Z,10.25
2016-12-11T12:37:31.050Z,10.24
2016-12-11T12:38:31.027Z,10.14
2016-12-11T12:39:31.316Z,9.99
2016-12-11T12:40:31.252Z,10.1
2016-12-11T12:41:32.226Z,10.13
2016-12-11T12:42:31.247Z,10.11
2016-12-11T12:43:31.051Z,10.16
2016-12-11T12:44:31.065Z,10.36
2016-12-11T12:45:30.954Z,10.6
2016-12-11T12:46:30.980Z,10.65
2016-12-11T12:47:31.005Z,10.65
2016-12-11T12:48:31.093Z,10.66
2016-12-11T12:49:31.124Z,10.36
2016-12-11T12:50:31.096Z,10.26
2016-12-11T12:51:31.133Z,10.28
2016-12-11T12:52:31.005Z,10.26
2016-12-11T12:53:31.034Z,10.24
2016-12-11T12:54:31.016Z,10.16
2016-12-11T12:55:31.049Z,10.18
2016-12-11T12:56:31.081Z,10.2
2016-12-11T12:57:30.954Z,10.29
2016-12-11T12:58:31.003Z,10.36
2016-12-11T12:59:30.941Z,10.38
2016-12-11T13:00:31.061Z,10.34
2016-12-11T13:01:30.986Z,10.32
2016-12-11T13:02:31.120Z,10.51
2016-12-11T13:03:31.074Z,10.55
2016-12-11T13:04:31.039Z,10.62
2016-12-11T13:05:31.133Z,10.46
2016-12-11T13:06:31.050Z,10.36
2016-12-11T13:07:31.007Z,10.36
2016-12-11T13:08:31.123Z,10.34
2016-12-11T13:09:31.032Z,10.47
2016-12-11T13:10:31.101Z,10.47
2016-12-11T13:11:31.706Z,10.46
2016-12-11T13:12:31.012Z,10.34
2016-12-11T13:13:31.044Z,10.46
2016-12-11T13:14:31.004Z,10.49